sensor_id;sensor_type;location;lat;lon;timestamp;P1;durP1;ratioP1;P2;durP2;ratioP2
68377;SDS011;55322;48.146;11.516;2023-08-01T00:00:38;7.97;;;2.05;;
68377;SDS011;55322;48.146;11.516;2023-08-01T00:03:03;7.43;;;2.23;;
68377;SDS011;55322;48.146;11.516;2023-08-01T00:05:29;6.97;;;1.95;;
68377;SDS011;55322;48.146;11.516;2023-08-01T00:07:54;6.57;;;1.90;;
68377;SDS011;55322;48.146;11.516;2023-08-01T00:10:20;7.23;;;1.77;;
68377;SDS011;55322;48.146;11.516;2023-08-01T00:12:45;6.57;;;1.97;;
68377;SDS011;55322;48.146;11.516;2023-08-01T00:15:10;5.60;;;1.90;;
68377;SDS011;55322;48.146;11.516;2023-08-01T00:17:36;7.30;;;1.85;;
68377;SDS011;55322;48.146;11.516;2023-08-01T00:20:02;5.57;;;1.83;;
68377;SDS011;55322;48.146;11.516;2023-08-01T00:22:28;5.50;;;1.80;;
68377;SDS011;55322;48.146;11.516;2023-08-01T00:24:53;7.03;;;1.80;;
68377;SDS011;55322;48.146;11.516;2023-08-01T00:27:19;7.23;;;2.07;;
68377;SDS011;55322;48.146;11.516;2023-08-01T00:29:44;6.30;;;1.87;;
68377;SDS011;55322;48.146;11.516;2023-08-01T00:32:10;5.85;;;1.85;;
68377;SDS011;55322;48.146;11.516;2023-08-01T00:34:35;6.23;;;1.90;;
68377;SDS011;55322;48.146;11.516;2023-08-01T00:37:01;7.68;;;2.08;;
68377;SDS011;55322;48.146;11.516;2023-08-01T00:39:26;5.63;;;1.63;;
68377;SDS011;55322;48.146;11.516;2023-08-01T00:41:51;5.87;;;1.77;;
68377;SDS011;55322;48.146;11.516;2023-08-01T00:44:17;8.93;;;2.00;;
68377;SDS011;55322;48.146;11.516;2023-08-01T00:46:42;5.83;;;1.70;;
68377;SDS011;55322;48.146;11.516;2023-08-01T00:49:07;7.63;;;2.07;;
68377;SDS011;55322;48.146;11.516;2023-08-01T00:51:33;6.43;;;1.83;;
68377;SDS011;55322;48.146;11.516;2023-08-01T00:53:59;5.80;;;1.83;;
68377;SDS011;55322;48.146;11.516;2023-08-01T00:56:25;7.63;;;1.80;;
68377;SDS011;55322;48.146;11.516;2023-08-01T00:58:51;6.23;;;1.90;;
68377;SDS011;55322;48.146;11.516;2023-08-01T01:01:16;8.07;;;2.17;;
68377;SDS011;55322;48.146;11.516;2023-08-01T01:03:41;6.20;;;1.90;;
68377;SDS011;55322;48.146;11.516;2023-08-01T01:08:44;6.43;;;1.77;;
68377;SDS011;55322;48.146;11.516;2023-08-01T01:11:10;7.28;;;1.70;;
68377;SDS011;55322;48.146;11.516;2023-08-01T01:13:36;6.33;;;2.00;;
68377;SDS011;55322;48.146;11.516;2023-08-01T01:16:01;6.40;;;1.70;;
68377;SDS011;55322;48.146;11.516;2023-08-01T01:18:26;5.67;;;1.80;;
68377;SDS011;55322;48.146;11.516;2023-08-01T01:20:52;6.03;;;2.00;;
68377;SDS011;55322;48.146;11.516;2023-08-01T01:23:17;8.57;;;2.17;;
68377;SDS011;55322;48.146;11.516;2023-08-01T01:25:44;5.75;;;1.70;;
68377;SDS011;55322;48.146;11.516;2023-08-01T01:28:11;6.30;;;2.07;;
68377;SDS011;55322;48.146;11.516;2023-08-01T01:30:37;5.80;;;1.88;;
68377;SDS011;55322;48.146;11.516;2023-08-01T01:33:03;6.40;;;2.05;;
68377;SDS011;55322;48.146;11.516;2023-08-01T01:35:29;7.07;;;2.28;;
68377;SDS011;55322;48.146;11.516;2023-08-01T01:37:57;6.55;;;1.80;;
68377;SDS011;55322;48.146;11.516;2023-08-01T01:40:23;5.57;;;1.90;;
68377;SDS011;55322;48.146;11.516;2023-08-01T01:42:49;6.10;;;1.73;;
68377;SDS011;55322;48.146;11.516;2023-08-01T01:45:14;6.13;;;2.00;;
68377;SDS011;55322;48.146;11.516;2023-08-01T01:47:40;6.63;;;2.03;;
68377;SDS011;55322;48.146;11.516;2023-08-01T01:50:05;7.37;;;2.40;;
68377;SDS011;55322;48.146;11.516;2023-08-01T01:52:31;6.25;;;2.13;;
68377;SDS011;55322;48.146;11.516;2023-08-01T01:54:57;8.25;;;2.10;;
68377;SDS011;55322;48.146;11.516;2023-08-01T01:57:23;6.57;;;2.17;;
68377;SDS011;55322;48.146;11.516;2023-08-01T01:59:48;6.33;;;2.20;;
68377;SDS011;55322;48.146;11.516;2023-08-01T02:02:13;6.70;;;2.10;;
68377;SDS011;55322;48.146;11.516;2023-08-01T02:04:39;6.30;;;1.90;;
68377;SDS011;55322;48.146;11.516;2023-08-01T02:07:04;6.43;;;2.10;;
68377;SDS011;55322;48.146;11.516;2023-08-01T02:09:30;9.97;;;2.10;;
68377;SDS011;55322;48.146;11.516;2023-08-01T02:11:55;6.47;;;2.00;;
68377;SDS011;55322;48.146;11.516;2023-08-01T02:14:21;6.43;;;2.20;;
68377;SDS011;55322;48.146;11.516;2023-08-01T02:16:46;6.03;;;1.93;;
68377;SDS011;55322;48.146;11.516;2023-08-01T02:19:11;7.05;;;2.03;;
68377;SDS011;55322;48.146;11.516;2023-08-01T02:21:37;6.10;;;1.97;;
68377;SDS011;55322;48.146;11.516;2023-08-01T02:24:02;5.87;;;1.77;;
68377;SDS011;55322;48.146;11.516;2023-08-01T02:26:28;6.67;;;1.97;;
68377;SDS011;55322;48.146;11.516;2023-08-01T02:28:54;6.73;;;1.97;;
68377;SDS011;55322;48.146;11.516;2023-08-01T02:31:19;7.50;;;2.00;;
68377;SDS011;55322;48.146;11.516;2023-08-01T02:33:45;7.10;;;2.20;;
68377;SDS011;55322;48.146;11.516;2023-08-01T02:36:10;6.97;;;2.10;;
68377;SDS011;55322;48.146;11.516;2023-08-01T02:38:35;6.63;;;2.20;;
68377;SDS011;55322;48.146;11.516;2023-08-01T02:41:01;6.53;;;2.40;;
68377;SDS011;55322;48.146;11.516;2023-08-01T02:43:26;8.33;;;2.40;;
68377;SDS011;55322;48.146;11.516;2023-08-01T02:45:51;5.83;;;1.90;;
68377;SDS011;55322;48.146;11.516;2023-08-01T02:48:17;7.40;;;2.37;;
68377;SDS011;55322;48.146;11.516;2023-08-01T02:50:42;7.53;;;2.20;;
68377;SDS011;55322;48.146;11.516;2023-08-01T02:53:07;6.28;;;2.13;;
68377;SDS011;55322;48.146;11.516;2023-08-01T02:55:33;6.97;;;2.20;;
68377;SDS011;55322;48.146;11.516;2023-08-01T02:57:58;6.87;;;2.13;;
68377;SDS011;55322;48.146;11.516;2023-08-01T03:00:23;6.37;;;2.30;;
68377;SDS011;55322;48.146;11.516;2023-08-01T03:02:49;7.93;;;2.30;;
68377;SDS011;55322;48.146;11.516;2023-08-01T03:05:14;6.63;;;2.30;;
68377;SDS011;55322;48.146;11.516;2023-08-01T03:07:39;6.70;;;2.00;;
68377;SDS011;55322;48.146;11.516;2023-08-01T03:10:05;6.57;;;2.30;;
68377;SDS011;55322;48.146;11.516;2023-08-01T03:12:31;6.53;;;2.10;;
68377;SDS011;55322;48.146;11.516;2023-08-01T03:14:57;6.18;;;2.30;;
68377;SDS011;55322;48.146;11.516;2023-08-01T03:17:22;8.33;;;2.47;;
68377;SDS011;55322;48.146;11.516;2023-08-01T03:19:48;7.80;;;2.33;;
68377;SDS011;55322;48.146;11.516;2023-08-01T03:22:14;9.32;;;2.22;;
68377;SDS011;55322;48.146;11.516;2023-08-01T03:24:39;7.17;;;2.40;;
68377;SDS011;55322;48.146;11.516;2023-08-01T03:27:04;7.37;;;2.10;;
68377;SDS011;55322;48.146;11.516;2023-08-01T03:29:30;8.45;;;2.85;;
68377;SDS011;55322;48.146;11.516;2023-08-01T03:31:55;8.80;;;2.97;;
68377;SDS011;55322;48.146;11.516;2023-08-01T03:34:20;6.97;;;2.30;;
68377;SDS011;55322;48.146;11.516;2023-08-01T03:36:46;7.47;;;2.40;;
68377;SDS011;55322;48.146;11.516;2023-08-01T03:39:11;8.60;;;3.10;;
68377;SDS011;55322;48.146;11.516;2023-08-01T03:41:37;7.33;;;2.40;;
68377;SDS011;55322;48.146;11.516;2023-08-01T03:44:03;6.47;;;2.63;;
68377;SDS011;55322;48.146;11.516;2023-08-01T03:46:28;7.43;;;2.83;;
68377;SDS011;55322;48.146;11.516;2023-08-01T03:48:54;7.07;;;2.93;;
68377;SDS011;55322;48.146;11.516;2023-08-01T03:51:19;7.60;;;2.80;;
68377;SDS011;55322;48.146;11.516;2023-08-01T03:53:45;8.00;;;2.97;;
68377;SDS011;55322;48.146;11.516;2023-08-01T03:56:11;9.33;;;3.30;;
68377;SDS011;55322;48.146;11.516;2023-08-01T03:58:36;8.57;;;3.30;;
68377;SDS011;55322;48.146;11.516;2023-08-01T04:01:01;8.07;;;3.38;;
68377;SDS011;55322;48.146;11.516;2023-08-01T04:03:27;10.17;;;3.50;;
68377;SDS011;55322;48.146;11.516;2023-08-01T04:05:52;9.03;;;3.30;;
68377;SDS011;55322;48.146;11.516;2023-08-01T04:08:17;9.03;;;3.50;;
68377;SDS011;55322;48.146;11.516;2023-08-01T04:10:43;8.63;;;3.83;;
68377;SDS011;55322;48.146;11.516;2023-08-01T04:13:08;8.23;;;3.53;;
68377;SDS011;55322;48.146;11.516;2023-08-01T04:15:34;9.53;;;3.70;;
68377;SDS011;55322;48.146;11.516;2023-08-01T04:17:59;9.77;;;3.50;;
68377;SDS011;55322;48.146;11.516;2023-08-01T04:20:24;9.93;;;3.93;;
68377;SDS011;55322;48.146;11.516;2023-08-01T04:22:49;8.57;;;3.60;;
68377;SDS011;55322;48.146;11.516;2023-08-01T04:25:15;7.57;;;3.40;;
68377;SDS011;55322;48.146;11.516;2023-08-01T04:27:40;9.43;;;4.07;;
68377;SDS011;55322;48.146;11.516;2023-08-01T04:30:06;10.90;;;3.80;;
68377;SDS011;55322;48.146;11.516;2023-08-01T04:32:31;9.30;;;4.00;;
68377;SDS011;55322;48.146;11.516;2023-08-01T04:34:57;9.10;;;4.30;;
68377;SDS011;55322;48.146;11.516;2023-08-01T04:37:22;11.30;;;4.65;;
68377;SDS011;55322;48.146;11.516;2023-08-01T04:39:48;10.63;;;3.97;;
68377;SDS011;55322;48.146;11.516;2023-08-01T04:42:13;8.93;;;4.10;;
68377;SDS011;55322;48.146;11.516;2023-08-01T04:44:39;11.20;;;4.27;;
68377;SDS011;55322;48.146;11.516;2023-08-01T04:47:04;12.27;;;4.57;;
68377;SDS011;55322;48.146;11.516;2023-08-01T04:49:30;9.73;;;4.30;;
68377;SDS011;55322;48.146;11.516;2023-08-01T04:51:55;10.93;;;4.37;;
68377;SDS011;55322;48.146;11.516;2023-08-01T04:54:21;9.60;;;4.20;;
68377;SDS011;55322;48.146;11.516;2023-08-01T04:56:46;9.10;;;4.23;;
68377;SDS011;55322;48.146;11.516;2023-08-01T04:59:11;10.87;;;4.43;;
68377;SDS011;55322;48.146;11.516;2023-08-01T05:01:36;10.80;;;4.67;;
68377;SDS011;55322;48.146;11.516;2023-08-01T05:04:02;10.03;;;4.20;;
68377;SDS011;55322;48.146;11.516;2023-08-01T05:06:27;12.23;;;4.50;;
68377;SDS011;55322;48.146;11.516;2023-08-01T05:08:53;10.30;;;4.30;;
68377;SDS011;55322;48.146;11.516;2023-08-01T05:11:18;11.45;;;4.63;;
68377;SDS011;55322;48.146;11.516;2023-08-01T05:13:44;10.27;;;4.40;;
68377;SDS011;55322;48.146;11.516;2023-08-01T05:16:09;9.40;;;4.30;;
68377;SDS011;55322;48.146;11.516;2023-08-01T05:18:34;11.97;;;4.40;;
68377;SDS011;55322;48.146;11.516;2023-08-01T05:21:00;8.67;;;3.83;;
68377;SDS011;55322;48.146;11.516;2023-08-01T05:23:25;10.20;;;3.80;;
68377;SDS011;55322;48.146;11.516;2023-08-01T05:25:50;10.13;;;4.00;;
68377;SDS011;55322;48.146;11.516;2023-08-01T05:28:15;13.10;;;4.03;;
68377;SDS011;55322;48.146;11.516;2023-08-01T05:30:41;11.43;;;4.30;;
68377;SDS011;55322;48.146;11.516;2023-08-01T05:33:06;12.33;;;4.20;;
68377;SDS011;55322;48.146;11.516;2023-08-01T05:35:31;9.13;;;3.90;;
68377;SDS011;55322;48.146;11.516;2023-08-01T05:37:57;11.73;;;4.10;;
68377;SDS011;55322;48.146;11.516;2023-08-01T05:40:22;12.07;;;3.60;;
68377;SDS011;55322;48.146;11.516;2023-08-01T05:42:47;9.68;;;3.42;;
68377;SDS011;55322;48.146;11.516;2023-08-01T05:45:13;10.10;;;3.87;;
68377;SDS011;55322;48.146;11.516;2023-08-01T05:47:38;7.67;;;3.43;;
68377;SDS011;55322;48.146;11.516;2023-08-01T05:50:05;8.48;;;3.30;;
68377;SDS011;55322;48.146;11.516;2023-08-01T05:52:31;9.23;;;3.80;;
68377;SDS011;55322;48.146;11.516;2023-08-01T05:54:58;8.97;;;3.20;;
68377;SDS011;55322;48.146;11.516;2023-08-01T05:57:23;10.07;;;3.50;;
68377;SDS011;55322;48.146;11.516;2023-08-01T05:59:49;9.63;;;3.47;;
68377;SDS011;55322;48.146;11.516;2023-08-01T06:02:14;8.80;;;3.17;;
68377;SDS011;55322;48.146;11.516;2023-08-01T06:04:40;7.87;;;3.10;;
68377;SDS011;55322;48.146;11.516;2023-08-01T06:07:05;7.93;;;2.67;;
68377;SDS011;55322;48.146;11.516;2023-08-01T06:09:30;11.35;;;3.40;;
68377;SDS011;55322;48.146;11.516;2023-08-01T06:11:56;7.37;;;2.73;;
68377;SDS011;55322;48.146;11.516;2023-08-01T06:14:21;9.00;;;3.10;;
68377;SDS011;55322;48.146;11.516;2023-08-01T06:16:46;9.23;;;3.00;;
68377;SDS011;55322;48.146;11.516;2023-08-01T06:19:12;7.13;;;2.80;;
68377;SDS011;55322;48.146;11.516;2023-08-01T06:21:37;7.33;;;3.10;;
68377;SDS011;55322;48.146;11.516;2023-08-01T06:24:02;7.73;;;2.97;;
68377;SDS011;55322;48.146;11.516;2023-08-01T06:26:28;7.17;;;2.97;;
68377;SDS011;55322;48.146;11.516;2023-08-01T06:28:53;8.97;;;3.30;;
68377;SDS011;55322;48.146;11.516;2023-08-01T06:31:22;7.63;;;3.20;;
68377;SDS011;55322;48.146;11.516;2023-08-01T06:33:47;9.43;;;3.13;;
68377;SDS011;55322;48.146;11.516;2023-08-01T06:36:13;7.90;;;3.03;;
68377;SDS011;55322;48.146;11.516;2023-08-01T06:38:38;7.20;;;2.77;;
68377;SDS011;55322;48.146;11.516;2023-08-01T06:41:04;7.37;;;2.90;;
68377;SDS011;55322;48.146;11.516;2023-08-01T06:43:29;8.87;;;2.80;;
68377;SDS011;55322;48.146;11.516;2023-08-01T06:45:55;8.43;;;3.50;;
68377;SDS011;55322;48.146;11.516;2023-08-01T06:48:20;7.53;;;2.60;;
68377;SDS011;55322;48.146;11.516;2023-08-01T06:50:45;6.67;;;2.57;;
68377;SDS011;55322;48.146;11.516;2023-08-01T06:53:10;8.03;;;2.83;;
68377;SDS011;55322;48.146;11.516;2023-08-01T06:55:36;6.97;;;2.60;;
68377;SDS011;55322;48.146;11.516;2023-08-01T06:58:01;6.93;;;2.53;;
68377;SDS011;55322;48.146;11.516;2023-08-01T07:00:26;9.67;;;2.40;;
68377;SDS011;55322;48.146;11.516;2023-08-01T07:02:52;6.50;;;2.33;;
68377;SDS011;55322;48.146;11.516;2023-08-01T07:05:17;6.83;;;2.73;;
68377;SDS011;55322;48.146;11.516;2023-08-01T07:07:42;7.57;;;2.20;;
68377;SDS011;55322;48.146;11.516;2023-08-01T07:10:08;7.67;;;2.37;;
68377;SDS011;55322;48.146;11.516;2023-08-01T07:12:34;6.35;;;2.30;;
68377;SDS011;55322;48.146;11.516;2023-08-01T07:14:59;7.90;;;2.10;;
68377;SDS011;55322;48.146;11.516;2023-08-01T07:17:24;7.13;;;2.30;;
68377;SDS011;55322;48.146;11.516;2023-08-01T07:19:50;7.30;;;2.40;;
68377;SDS011;55322;48.146;11.516;2023-08-01T07:22:15;7.47;;;2.77;;
68377;SDS011;55322;48.146;11.516;2023-08-01T07:24:40;10.00;;;2.80;;
68377;SDS011;55322;48.146;11.516;2023-08-01T07:27:06;6.57;;;2.50;;
68377;SDS011;55322;48.146;11.516;2023-08-01T07:29:31;6.80;;;2.37;;
68377;SDS011;55322;48.146;11.516;2023-08-01T07:31:56;6.67;;;2.17;;
68377;SDS011;55322;48.146;11.516;2023-08-01T07:34:22;6.57;;;2.00;;
68377;SDS011;55322;48.146;11.516;2023-08-01T07:36:47;9.30;;;1.90;;
68377;SDS011;55322;48.146;11.516;2023-08-01T07:39:14;7.35;;;2.33;;
68377;SDS011;55322;48.146;11.516;2023-08-01T07:41:39;6.40;;;1.95;;
68377;SDS011;55322;48.146;11.516;2023-08-01T07:44:05;7.80;;;2.00;;
68377;SDS011;55322;48.146;11.516;2023-08-01T07:46:31;7.20;;;1.83;;
68377;SDS011;55322;48.146;11.516;2023-08-01T07:48:56;9.45;;;2.40;;
68377;SDS011;55322;48.146;11.516;2023-08-01T07:51:22;7.13;;;1.77;;
68377;SDS011;55322;48.146;11.516;2023-08-01T07:53:47;7.33;;;2.67;;
68377;SDS011;55322;48.146;11.516;2023-08-01T07:56:12;7.20;;;2.10;;
68377;SDS011;55322;48.146;11.516;2023-08-01T07:58:38;6.70;;;2.27;;
68377;SDS011;55322;48.146;11.516;2023-08-01T08:01:04;6.30;;;2.15;;
68377;SDS011;55322;48.146;11.516;2023-08-01T08:03:29;7.40;;;1.90;;
68377;SDS011;55322;48.146;11.516;2023-08-01T08:05:55;8.45;;;2.45;;
68377;SDS011;55322;48.146;11.516;2023-08-01T08:08:20;7.73;;;2.00;;
68377;SDS011;55322;48.146;11.516;2023-08-01T08:10:46;6.43;;;1.80;;
68377;SDS011;55322;48.146;11.516;2023-08-01T08:13:11;8.23;;;2.10;;
68377;SDS011;55322;48.146;11.516;2023-08-01T08:15:36;8.20;;;2.23;;
68377;SDS011;55322;48.146;11.516;2023-08-01T08:18:02;7.95;;;2.05;;
68377;SDS011;55322;48.146;11.516;2023-08-01T08:20:29;7.07;;;2.20;;
68377;SDS011;55322;48.146;11.516;2023-08-01T08:22:55;6.63;;;2.28;;
68377;SDS011;55322;48.146;11.516;2023-08-01T08:25:20;7.87;;;2.10;;
68377;SDS011;55322;48.146;11.516;2023-08-01T08:27:46;7.77;;;2.70;;
68377;SDS011;55322;48.146;11.516;2023-08-01T08:30:13;9.85;;;3.53;;
68377;SDS011;55322;48.146;11.516;2023-08-01T08:32:38;6.17;;;2.30;;
68377;SDS011;55322;48.146;11.516;2023-08-01T08:35:04;6.45;;;2.03;;
68377;SDS011;55322;48.146;11.516;2023-08-01T08:37:29;7.53;;;1.97;;
68377;SDS011;55322;48.146;11.516;2023-08-01T08:39:54;6.70;;;2.00;;
68377;SDS011;55322;48.146;11.516;2023-08-01T08:42:20;6.47;;;2.00;;
68377;SDS011;55322;48.146;11.516;2023-08-01T08:44:45;7.00;;;1.97;;
68377;SDS011;55322;48.146;11.516;2023-08-01T08:47:16;9.13;;;2.17;;
68377;SDS011;55322;48.146;11.516;2023-08-01T08:49:42;7.53;;;2.40;;
68377;SDS011;55322;48.146;11.516;2023-08-01T08:52:09;8.85;;;2.63;;
68377;SDS011;55322;48.146;11.516;2023-08-01T08:54:35;8.13;;;2.30;;
68377;SDS011;55322;48.146;11.516;2023-08-01T08:57:00;9.07;;;2.37;;
68377;SDS011;55322;48.146;11.516;2023-08-01T08:59:26;8.50;;;2.17;;
68377;SDS011;55322;48.146;11.516;2023-08-01T09:01:52;7.40;;;2.10;;
68377;SDS011;55322;48.146;11.516;2023-08-01T09:04:17;8.10;;;2.53;;
68377;SDS011;55322;48.146;11.516;2023-08-01T09:06:44;9.17;;;2.30;;
68377;SDS011;55322;48.146;11.516;2023-08-01T09:09:13;7.20;;;2.45;;
68377;SDS011;55322;48.146;11.516;2023-08-01T09:14:07;7.38;;;2.22;;
68377;SDS011;55322;48.146;11.516;2023-08-01T09:16:32;6.47;;;2.40;;
68377;SDS011;55322;48.146;11.516;2023-08-01T09:18:58;7.40;;;2.30;;
68377;SDS011;55322;48.146;11.516;2023-08-01T09:21:23;10.30;;;2.50;;
68377;SDS011;55322;48.146;11.516;2023-08-01T09:23:49;7.93;;;2.30;;
68377;SDS011;55322;48.146;11.516;2023-08-01T09:26:18;9.35;;;2.40;;
68377;SDS011;55322;48.146;11.516;2023-08-01T09:28:54;7.43;;;2.38;;
68377;SDS011;55322;48.146;11.516;2023-08-01T09:31:27;7.05;;;2.47;;
68377;SDS011;55322;48.146;11.516;2023-08-01T09:33:54;6.40;;;2.20;;
68377;SDS011;55322;48.146;11.516;2023-08-01T09:36:23;8.63;;;2.60;;
68377;SDS011;55322;48.146;11.516;2023-08-01T09:38:48;7.18;;;2.42;;
68377;SDS011;55322;48.146;11.516;2023-08-01T09:41:18;5.90;;;2.17;;
68377;SDS011;55322;48.146;11.516;2023-08-01T09:43:44;7.80;;;2.50;;
68377;SDS011;55322;48.146;11.516;2023-08-01T09:46:11;7.07;;;2.37;;
68377;SDS011;55322;48.146;11.516;2023-08-01T09:48:37;7.30;;;2.10;;
68377;SDS011;55322;48.146;11.516;2023-08-01T09:53:32;13.57;;;2.60;;
68377;SDS011;55322;48.146;11.516;2023-08-01T09:55:59;6.47;;;2.20;;
68377;SDS011;55322;48.146;11.516;2023-08-01T09:58:25;7.22;;;2.30;;
68377;SDS011;55322;48.146;11.516;2023-08-01T10:00:54;7.20;;;2.38;;
68377;SDS011;55322;48.146;11.516;2023-08-01T10:03:19;6.47;;;2.33;;
68377;SDS011;55322;48.146;11.516;2023-08-01T10:05:45;7.22;;;2.40;;
68377;SDS011;55322;48.146;11.516;2023-08-01T10:08:11;7.40;;;2.33;;
68377;SDS011;55322;48.146;11.516;2023-08-01T10:10:37;5.95;;;2.00;;
68377;SDS011;55322;48.146;11.516;2023-08-01T10:13:03;6.13;;;2.03;;
68377;SDS011;55322;48.146;11.516;2023-08-01T10:15:29;9.60;;;2.42;;
68377;SDS011;55322;48.146;11.516;2023-08-01T10:17:55;7.63;;;2.40;;
68377;SDS011;55322;48.146;11.516;2023-08-01T10:20:20;7.50;;;2.37;;
68377;SDS011;55322;48.146;11.516;2023-08-01T10:22:47;6.87;;;2.20;;
68377;SDS011;55322;48.146;11.516;2023-08-01T10:25:15;8.32;;;2.40;;
68377;SDS011;55322;48.146;11.516;2023-08-01T10:27:41;6.53;;;2.40;;
68377;SDS011;55322;48.146;11.516;2023-08-01T10:30:06;8.33;;;2.10;;
68377;SDS011;55322;48.146;11.516;2023-08-01T10:34:59;6.97;;;2.35;;
68377;SDS011;55322;48.146;11.516;2023-08-01T10:37:25;7.87;;;2.70;;
68377;SDS011;55322;48.146;11.516;2023-08-01T10:39:57;7.15;;;2.50;;
68377;SDS011;55322;48.146;11.516;2023-08-01T10:42:24;7.72;;;2.33;;
68377;SDS011;55322;48.146;11.516;2023-08-01T10:44:50;6.20;;;2.13;;
68377;SDS011;55322;48.146;11.516;2023-08-01T10:47:15;6.65;;;2.38;;
68377;SDS011;55322;48.146;11.516;2023-08-01T10:49:50;8.13;;;1.97;;
68377;SDS011;55322;48.146;11.516;2023-08-01T10:54:45;7.33;;;2.60;;
68377;SDS011;55322;48.146;11.516;2023-08-01T10:57:17;7.05;;;1.98;;
68377;SDS011;55322;48.146;11.516;2023-08-01T10:59:43;7.70;;;2.20;;
68377;SDS011;55322;48.146;11.516;2023-08-01T11:02:09;6.68;;;2.20;;
68377;SDS011;55322;48.146;11.516;2023-08-01T11:04:34;6.47;;;2.17;;
68377;SDS011;55322;48.146;11.516;2023-08-01T11:06:59;5.53;;;1.80;;
68377;SDS011;55322;48.146;11.516;2023-08-01T11:09:26;7.80;;;1.93;;
68377;SDS011;55322;48.146;11.516;2023-08-01T11:11:57;5.43;;;1.70;;
68377;SDS011;55322;48.146;11.516;2023-08-01T11:14:24;6.65;;;2.28;;
68377;SDS011;55322;48.146;11.516;2023-08-01T11:16:51;5.35;;;1.60;;
68377;SDS011;55322;48.146;11.516;2023-08-01T11:19:19;4.95;;;1.50;;
68377;SDS011;55322;48.146;11.516;2023-08-01T11:21:45;6.47;;;1.50;;
68377;SDS011;55322;48.146;11.516;2023-08-01T11:24:11;6.65;;;1.70;;
68377;SDS011;55322;48.146;11.516;2023-08-01T11:26:40;5.00;;;1.57;;
68377;SDS011;55322;48.146;11.516;2023-08-01T11:29:07;5.65;;;1.42;;
68377;SDS011;55322;48.146;11.516;2023-08-01T11:31:32;6.40;;;1.33;;
68377;SDS011;55322;48.146;11.516;2023-08-01T11:33:57;7.67;;;2.63;;
68377;SDS011;55322;48.146;11.516;2023-08-01T11:36:26;5.37;;;1.70;;
68377;SDS011;55322;48.146;11.516;2023-08-01T11:38:54;6.00;;;1.60;;
68377;SDS011;55322;48.146;11.516;2023-08-01T11:41:22;6.10;;;1.58;;
68377;SDS011;55322;48.146;11.516;2023-08-01T11:43:48;5.90;;;1.40;;
68377;SDS011;55322;48.146;11.516;2023-08-01T11:46:13;5.77;;;1.87;;
68377;SDS011;55322;48.146;11.516;2023-08-01T11:48:39;6.00;;;1.70;;
68377;SDS011;55322;48.146;11.516;2023-08-01T11:51:09;6.00;;;1.50;;
68377;SDS011;55322;48.146;11.516;2023-08-01T11:53:34;6.20;;;2.00;;
68377;SDS011;55322;48.146;11.516;2023-08-01T11:56:03;6.00;;;1.70;;
68377;SDS011;55322;48.146;11.516;2023-08-01T11:58:32;6.55;;;2.00;;
68377;SDS011;55322;48.146;11.516;2023-08-01T12:01:02;6.43;;;2.00;;
68377;SDS011;55322;48.146;11.516;2023-08-01T12:03:46;6.23;;;1.77;;
68377;SDS011;55322;48.146;11.516;2023-08-01T12:06:20;8.07;;;2.08;;
68377;SDS011;55322;48.146;11.516;2023-08-01T12:08:47;6.05;;;1.70;;
68377;SDS011;55322;48.146;11.516;2023-08-01T12:16:42;6.27;;;1.90;;
68377;SDS011;55322;48.146;11.516;2023-08-01T12:19:19;6.25;;;1.90;;
68377;SDS011;55322;48.146;11.516;2023-08-01T12:21:46;5.40;;;1.52;;
68377;SDS011;55322;48.146;11.516;2023-08-01T12:24:11;5.82;;;1.95;;
68377;SDS011;55322;48.146;11.516;2023-08-01T12:26:37;8.70;;;1.57;;
68377;SDS011;55322;48.146;11.516;2023-08-01T12:29:02;5.37;;;1.60;;
68377;SDS011;55322;48.146;11.516;2023-08-01T12:31:28;6.63;;;1.70;;
68377;SDS011;55322;48.146;11.516;2023-08-01T12:33:53;7.00;;;1.87;;
68377;SDS011;55322;48.146;11.516;2023-08-01T12:36:18;6.27;;;1.80;;
68377;SDS011;55322;48.146;11.516;2023-08-01T12:38:44;8.03;;;1.60;;
68377;SDS011;55322;48.146;11.516;2023-08-01T12:41:09;6.50;;;2.00;;
68377;SDS011;55322;48.146;11.516;2023-08-01T12:43:35;5.47;;;1.58;;
68377;SDS011;55322;48.146;11.516;2023-08-01T12:46:00;6.33;;;1.53;;
68377;SDS011;55322;48.146;11.516;2023-08-01T12:48:26;6.87;;;1.57;;
68377;SDS011;55322;48.146;11.516;2023-08-01T12:50:52;5.47;;;1.80;;
68377;SDS011;55322;48.146;11.516;2023-08-01T12:53:18;6.30;;;2.03;;
68377;SDS011;55322;48.146;11.516;2023-08-01T12:55:44;8.07;;;4.10;;
68377;SDS011;55322;48.146;11.516;2023-08-01T12:58:10;5.93;;;2.20;;
68377;SDS011;55322;48.146;11.516;2023-08-01T13:00:35;5.53;;;1.80;;
68377;SDS011;55322;48.146;11.516;2023-08-01T13:03:00;5.10;;;1.60;;
68377;SDS011;55322;48.146;11.516;2023-08-01T13:05:26;7.20;;;1.77;;
68377;SDS011;55322;48.146;11.516;2023-08-01T13:07:51;5.50;;;1.57;;
68377;SDS011;55322;48.146;11.516;2023-08-01T13:10:17;5.97;;;1.80;;
68377;SDS011;55322;48.146;11.516;2023-08-01T13:12:42;7.27;;;1.43;;
68377;SDS011;55322;48.146;11.516;2023-08-01T13:15:08;5.78;;;1.58;;
68377;SDS011;55322;48.146;11.516;2023-08-01T13:17:34;5.17;;;1.50;;
68377;SDS011;55322;48.146;11.516;2023-08-01T13:19:59;5.70;;;1.60;;
68377;SDS011;55322;48.146;11.516;2023-08-01T13:22:24;5.32;;;1.60;;
68377;SDS011;55322;48.146;11.516;2023-08-01T13:24:50;6.20;;;1.50;;
68377;SDS011;55322;48.146;11.516;2023-08-01T13:27:15;5.97;;;1.47;;
68377;SDS011;55322;48.146;11.516;2023-08-01T13:29:40;7.83;;;1.90;;
68377;SDS011;55322;48.146;11.516;2023-08-01T13:32:06;6.70;;;1.67;;
68377;SDS011;55322;48.146;11.516;2023-08-01T13:34:32;5.90;;;1.67;;
68377;SDS011;55322;48.146;11.516;2023-08-01T13:36:57;5.90;;;1.60;;
68377;SDS011;55322;48.146;11.516;2023-08-01T13:39:23;10.17;;;1.90;;
68377;SDS011;55322;48.146;11.516;2023-08-01T13:41:48;32.58;;;2.90;;
68377;SDS011;55322;48.146;11.516;2023-08-01T13:44:13;5.40;;;1.67;;
68377;SDS011;55322;48.146;11.516;2023-08-01T13:46:39;5.50;;;1.57;;
68377;SDS011;55322;48.146;11.516;2023-08-01T13:49:04;6.00;;;1.50;;
68377;SDS011;55322;48.146;11.516;2023-08-01T13:51:33;5.57;;;1.60;;
68377;SDS011;55322;48.146;11.516;2023-08-01T13:53:59;5.80;;;1.70;;
68377;SDS011;55322;48.146;11.516;2023-08-01T13:56:25;4.60;;;1.45;;
68377;SDS011;55322;48.146;11.516;2023-08-01T13:58:50;6.77;;;1.90;;
68377;SDS011;55322;48.146;11.516;2023-08-01T14:01:16;5.97;;;1.55;;
68377;SDS011;55322;48.146;11.516;2023-08-01T14:03:43;6.00;;;1.67;;
68377;SDS011;55322;48.146;11.516;2023-08-01T14:06:10;6.33;;;1.93;;
68377;SDS011;55322;48.146;11.516;2023-08-01T14:08:37;6.43;;;1.85;;
68377;SDS011;55322;48.146;11.516;2023-08-01T14:11:04;5.38;;;1.80;;
68377;SDS011;55322;48.146;11.516;2023-08-01T14:13:31;9.95;;;2.50;;
68377;SDS011;55322;48.146;11.516;2023-08-01T14:15:57;7.07;;;2.20;;
68377;SDS011;55322;48.146;11.516;2023-08-01T14:18:23;6.80;;;1.90;;
68377;SDS011;55322;48.146;11.516;2023-08-01T14:20:48;7.50;;;2.00;;
68377;SDS011;55322;48.146;11.516;2023-08-01T14:23:14;7.03;;;2.15;;
68377;SDS011;55322;48.146;11.516;2023-08-01T14:25:39;6.70;;;2.00;;
68377;SDS011;55322;48.146;11.516;2023-08-01T14:28:04;7.03;;;2.00;;
68377;SDS011;55322;48.146;11.516;2023-08-01T14:30:30;6.73;;;2.20;;
68377;SDS011;55322;48.146;11.516;2023-08-01T14:33:02;5.50;;;1.90;;
68377;SDS011;55322;48.146;11.516;2023-08-01T14:35:28;5.47;;;1.00;;
68377;SDS011;55322;48.146;11.516;2023-08-01T14:37:54;5.43;;;1.20;;
68377;SDS011;55322;48.146;11.516;2023-08-01T14:40:20;5.80;;;1.00;;
68377;SDS011;55322;48.146;11.516;2023-08-01T14:42:49;4.70;;;1.10;;